KG-0006 weather

Tamga Airport
Tamga, Issyk Kul Region, Kyrgyzstan

Public forecast

Using degrees Celsius for public forecast. Weather courtesy of forecast.io.

Closest aviation weather report (METAR) to Tamga Airport

Closest report is Almaty Airport, 75.6 nm (140.0 km) NNW. Retrieved 2020/02/26 15:30 UTC (35 minutes ago):

UAAA 261530Z 14002MPS 5000 FU SCT050CB OVC100 07/01 Q1009 R88/CLRD65 NOSIG

Closest aviation forecast (TAF) to Tamga Airport

Closest forecast is Almaty Airport, 75.6 nm (140.0 km) NNW. Retrieved 2020/02/26 12:21 UTC (4 hours ago):

TAF GGOV 261100Z 2612/2712 05005KT 8000 NSC TAF UAAA 261100Z 2612/2712 22003G08MPS 5000 BR FU SCT020 BKN100 TX04/2709Z TNM01/2701Z TEMPO 2612/2616 07005G12MPS 1200 BR BECMG 2616/2617 3100 -SHRA BR BKN011CB BKN100 TEMPO 2616/2623 26010G15MPS 1100 SHRA BR BKN004 OVC010CB TEMPO 2623/2706 32003G08MPS 0600 SHSNRA FZFG BKN003 OVC010CB